KAUN

Auburn Municipal Airport

Auburn, California, USA
METAR KAUN 201115Z AUTO 10007KT 10SM CLR 10/M06 A3000 RMK A01
Observed Flight Rules
Nov-20 @ 11:15 UTC (23 minutes ago) Visual Flight Rules
Wind Visibility Clouds
100° at 7 knots 10 miles
  • Clear skies
Temperatures Readings
Current 10°C / 50°F
Dewpoint -6°C / 21°F
Humidity 32%
Altimeter 30" Hg
Pressure 1016 hPa
Elevation 467
METAR KAUN 201115Z AUTO 10007KT 10SM CLR 10/M06 A3000 RMK A01
Observed Flight Rules
Nov-20 @ 11:15 UTC
(23 minutes ago)
VFR
Wind Visibility
100° at 7 knots 10 miles
Clouds
  • Clear skies
Temperature Dewpoint
10°C / 50°F -6°C / 21°F
Humidity Altimeter Pressure
32% 30" Hg 1016 hPa